Time;durP1;ratioP1;P1;durP2;ratioP2;P2;SDS_P1;SDS_P2;PMS_P1;PMS_P2;Temp;Humidity;BMP_temperature;BMP_pressure;BME280_temperature;BME280_humidity;BME280_pressure;Samples;Min_cycle;Max_cycle;Signal;HPM_P1;HPM_P2
2023/09/14 00:00:23;;;;;;;9.13;2.70;;;13.60;99.90;;;;;;4194314;28;20734;-82
2023/09/14 00:02:25;;;;;;;6.63;2.30;;;13.60;99.90;;;;;;4193760;28;20270;-82
2023/09/14 00:04:30;;;;;;;4.77;2.30;;;13.60;99.90;;;;;;4192175;28;20275;-82
2023/09/14 00:06:32;;;;;;;11.03;3.00;;;13.60;99.90;;;;;;4197377;28;20699;-81
2023/09/14 00:08:33;;;;;;;5.87;2.60;;;13.60;99.90;;;;;;4193085;28;20613;-80
2023/09/14 00:10:36;;;;;;;3.87;2.30;;;13.60;99.90;;;;;;4196169;28;20212;-82
2023/09/14 00:12:38;;;;;;;4.47;2.40;;;13.60;99.90;;;;;;4188960;28;20628;-80
2023/09/14 00:14:40;;;;;;;5.70;2.67;;;13.60;99.90;;;;;;4193490;28;20215;-80
2023/09/14 00:16:42;;;;;;;3.77;2.37;;;13.60;99.90;;;;;;4190936;28;20243;-81
2023/09/14 00:18:44;;;;;;;4.83;2.90;;;13.60;99.90;;;;;;4189500;28;20638;-81
2023/09/14 00:20:46;;;;;;;4.87;2.80;;;13.60;99.90;;;;;;4194264;28;20209;-80
2023/09/14 00:22:50;;;;;;;6.27;2.70;;;13.50;99.90;;;;;;4190580;28;20261;-81
2023/09/14 00:24:52;;;;;;;6.10;2.70;;;13.60;99.90;;;;;;4193000;28;20196;-83
2023/09/14 00:26:56;;;;;;;6.20;2.60;;;13.60;99.90;;;;;;4188217;28;20274;-82
2023/09/14 00:28:58;;;;;;;7.43;3.20;;;13.60;99.90;;;;;;4191207;28;20273;-80
2023/09/14 00:31:00;;;;;;;7.90;2.60;;;13.60;99.90;;;;;;4189432;28;20815;-82
2023/09/14 00:33:04;;;;;;;8.17;3.17;;;13.60;99.90;;;;;;4189823;28;20770;-83
2023/09/14 00:35:07;;;;;;;7.93;2.80;;;13.60;99.90;;;;;;4193295;28;20578;-81
2023/09/14 00:37:08;;;;;;;5.43;2.63;;;13.60;99.90;;;;;;4194343;28;20217;-82
2023/09/14 00:39:10;;;;;;;5.10;2.83;;;13.60;99.90;;;;;;4194897;28;20205;-81
2023/09/14 00:41:12;;;;;;;6.00;3.40;;;13.60;99.90;;;;;;4195753;28;20232;-80
2023/09/14 00:43:19;;;;;;;5.00;3.33;;;13.60;99.90;;;;;;4175202;28;20832;-80
2023/09/14 00:45:22;;;;;;;5.50;3.10;;;13.60;99.90;;;;;;4197112;28;20221;-82
2023/09/14 00:47:23;;;;;;;5.20;2.90;;;13.60;99.90;;;;;;4187628;28;20249;-82
2023/09/14 00:49:26;;;;;;;7.70;3.80;;;13.60;99.90;;;;;;4188558;28;20224;-83
2023/09/14 00:51:29;;;;;;;9.40;3.90;;;13.60;99.90;;;;;;4198184;28;20212;-82
2023/09/14 00:53:31;;;;;;;7.90;3.57;;;13.60;99.90;;;;;;4196907;28;20209;-82
2023/09/14 00:55:34;;;;;;;7.13;3.60;;;13.60;99.90;;;;;;4192282;28;21165;-82
2023/09/14 00:57:37;;;;;;;9.67;4.60;;;13.60;99.90;;;;;;4191006;28;20633;-82
2023/09/14 00:59:41;;;;;;;6.00;3.90;;;13.60;99.90;;;;;;4193510;28;20215;-81
2023/09/14 01:01:43;;;;;;;13.37;5.10;;;13.60;99.90;;;;;;4196249;28;20678;-82
2023/09/14 01:03:45;;;;;;;9.80;5.47;;;13.60;99.90;;;;;;4190679;28;20292;-81
2023/09/14 01:05:49;;;;;;;9.73;6.13;;;13.60;99.90;;;;;;4192785;28;20762;-80
2023/09/14 01:07:51;;;;;;;15.33;6.10;;;13.60;99.90;;;;;;4192757;28;20205;-79
2023/09/14 01:09:53;;;;;;;14.23;6.47;;;13.60;99.90;;;;;;4192244;28;20219;-79
2023/09/14 01:11:55;;;;;;;13.73;6.87;;;13.60;99.90;;;;;;4198500;28;20283;-79
2023/09/14 01:14:10;;;;;;;14.27;7.17;;;13.60;99.90;;;;;;4197564;28;20212;-79
2023/09/14 01:16:21;;;;;;;11.63;6.63;;;13.50;99.90;;;;;;4197354;28;20252;-79
2023/09/14 01:18:30;;;;;;;12.63;6.47;;;13.50;99.90;;;;;;4190208;28;20213;-80
2023/09/14 01:20:58;;;;;;;13.83;7.17;;;13.50;99.90;;;;;;4192756;28;20204;-83
2023/09/14 01:23:10;;;;;;;14.77;6.20;;;13.50;99.90;;;;;;4198005;28;20203;-79
2023/09/14 01:25:21;;;;;;;12.33;5.80;;;13.70;99.90;;;;;;4191171;28;20209;-80
2023/09/14 01:27:24;;;;;;;15.10;6.23;;;13.50;99.90;;;;;;4190665;28;20206;-80
2023/09/14 01:29:28;;;;;;;15.47;6.70;;;13.50;99.90;;;;;;4188975;28;20673;-80
2023/09/14 01:31:31;;;;;;;9.77;5.93;;;13.50;99.90;;;;;;4188118;28;20200;-79
2023/09/14 01:33:33;;;;;;;9.37;5.47;;;13.60;99.90;;;;;;4186136;28;20691;-81
2023/09/14 01:35:42;;;;;;;12.63;6.10;;;13.40;99.90;;;;;;4189435;28;20305;-79
2023/09/14 01:37:44;;;;;;;10.90;5.77;;;13.60;99.90;;;;;;4195084;28;20602;-79
2023/09/14 01:39:46;;;;;;;13.27;5.70;;;13.60;99.90;;;;;;4195922;28;20204;-79
2023/09/14 01:41:54;;;;;;;10.37;5.27;;;13.60;99.90;;;;;;4193470;28;20290;-80
2023/09/14 01:43:58;;;;;;;11.63;5.30;;;13.50;99.90;;;;;;4190109;28;20218;-79
2023/09/14 01:46:02;;;;;;;17.17;6.17;;;13.50;99.90;;;;;;4186795;28;20227;-80
2023/09/14 01:48:04;;;;;;;8.57;5.63;;;13.50;99.90;;;;;;4176543;28;20221;-83
2023/09/14 01:50:09;;;;;;;11.27;5.17;;;13.50;99.90;;;;;;4190123;28;20244;-80
2023/09/14 01:52:11;;;;;;;11.73;5.43;;;13.50;99.90;;;;;;4193166;28;20210;-82
2023/09/14 01:54:12;;;;;;;8.07;4.90;;;13.60;99.90;;;;;;4191419;28;20609;-82
2023/09/14 01:56:14;;;;;;;11.13;5.33;;;13.50;99.90;;;;;;4187834;28;20224;-81
2023/09/14 01:58:16;;;;;;;12.43;5.60;;;13.50;99.90;;;;;;4191375;28;20672;-79
2023/09/14 02:00:20;;;;;;;8.70;4.77;;;13.50;99.90;;;;;;4193700;28;20271;-80
2023/09/14 02:02:25;;;;;;;9.70;4.60;;;13.50;99.90;;;;;;4192827;28;20702;-82
2023/09/14 02:04:27;;;;;;;9.33;4.57;;;13.50;99.90;;;;;;4191308;28;20216;-79
2023/09/14 02:06:28;;;;;;;11.60;4.97;;;13.50;99.90;;;;;;4187642;28;20230;-80
2023/09/14 02:08:30;;;;;;;10.40;5.10;;;13.50;99.90;;;;;;4184892;28;20255;-80
2023/09/14 02:10:32;;;;;;;10.63;4.97;;;13.50;99.90;;;;;;4187312;28;20235;-80
2023/09/14 02:12:33;;;;;;;11.23;5.17;;;13.50;99.90;;;;;;4187187;28;20208;-80
2023/09/14 02:14:35;;;;;;;6.70;4.43;;;13.50;99.90;;;;;;4194056;28;20268;-80
2023/09/14 02:16:39;;;;;;;9.00;4.57;;;13.50;99.90;;;;;;4188706;28;20235;-81
2023/09/14 02:18:41;;;;;;;11.70;4.97;;;13.50;99.90;;;;;;4194247;28;20239;-81
2023/09/14 02:20:43;;;;;;;8.70;4.57;;;13.50;99.90;;;;;;4193859;28;20211;-81
2023/09/14 02:22:45;;;;;;;9.57;4.57;;;13.50;99.90;;;;;;4189906;28;20204;-82
2023/09/14 02:24:47;;;;;;;6.33;4.07;;;13.50;99.90;;;;;;4193543;28;20202;-80
2023/09/14 02:26:51;;;;;;;12.30;5.07;;;13.40;99.90;;;;;;4188923;28;20228;-81
2023/09/14 02:28:53;;;;;;;10.67;4.83;;;13.50;99.90;;;;;;4193375;28;20281;-79
2023/09/14 02:30:55;;;;;;;11.00;4.40;;;13.40;99.90;;;;;;4190149;28;20724;-80
2023/09/14 02:32:58;;;;;;;11.97;4.10;;;13.40;99.90;;;;;;4186402;28;20211;-81
2023/09/14 02:35:00;;;;;;;6.93;3.90;;;13.40;99.90;;;;;;4188306;28;20616;-82
2023/09/14 02:37:02;;;;;;;10.37;4.20;;;13.40;99.90;;;;;;4189497;28;20304;-80
2023/09/14 02:39:05;;;;;;;9.17;3.67;;;13.30;99.90;;;;;;4188169;28;20227;-79
2023/09/14 02:41:09;;;;;;;12.70;4.50;;;13.30;99.90;;;;;;4190474;28;20198;-79
2023/09/14 02:43:11;;;;;;;13.63;3.60;;;13.30;99.90;;;;;;4192025;28;20203;-81
2023/09/14 02:45:13;;;;;;;7.20;4.17;;;13.30;99.90;;;;;;4186129;28;20218;-80
2023/09/14 02:47:15;;;;;;;8.37;3.80;;;13.30;99.90;;;;;;4186287;28;20244;-79
2023/09/14 02:49:19;;;;;;;8.73;3.70;;;13.30;99.90;;;;;;4189615;28;20237;-79
2023/09/14 02:51:21;;;;;;;9.03;3.87;;;13.30;99.90;;;;;;4191041;28;20212;-79
2023/09/14 02:53:23;;;;;;;7.43;3.93;;;13.30;99.90;;;;;;4191012;28;20212;-79
2023/09/14 02:55:25;;;;;;;7.03;3.90;;;13.20;99.90;;;;;;4187792;28;20208;-79
2023/09/14 02:57:27;;;;;;;20.10;4.63;;;13.20;99.90;;;;;;4189591;28;20216;-79
2023/09/14 02:59:29;;;;;;;9.73;4.30;;;13.20;99.90;;;;;;4190454;28;20205;-79
2023/09/14 03:01:31;;;;;;;8.37;3.87;;;13.20;99.90;;;;;;4186321;28;20215;-79
2023/09/14 03:03:32;;;;;;;10.97;3.83;;;13.10;99.90;;;;;;4190660;28;20246;-79
2023/09/14 03:05:36;;;;;;;8.53;3.70;;;13.10;99.90;;;;;;4187894;28;20229;-79
2023/09/14 03:07:37;;;;;;;10.27;4.63;;;13.10;99.90;;;;;;4189313;28;20626;-81
2023/09/14 03:09:39;;;;;;;6.97;3.60;;;13.10;99.90;;;;;;4186285;28;20674;-79
2023/09/14 03:11:41;;;;;;;8.17;4.00;;;13.10;99.90;;;;;;4189700;28;20204;-80
2023/09/14 03:13:43;;;;;;;9.03;3.40;;;13.00;99.90;;;;;;4186581;28;20666;-79
2023/09/14 03:15:52;;;;;;;9.50;3.80;;;13.00;99.90;;;;;;4185621;28;20272;-79
2023/09/14 03:17:54;;;;;;;6.10;3.80;;;13.00;99.90;;;;;;4187477;28;20290;-82
2023/09/14 03:19:57;;;;;;;6.53;3.33;;;13.00;99.90;;;;;;4191719;28;20272;-81
2023/09/14 03:22:00;;;;;;;10.33;3.80;;;13.00;99.90;;;;;;4188552;28;20203;-80
2023/09/14 10:15:36;;;;;;;4.23;1.87;;;17.40;99.90;;;;;;4171151;28;20310;-82
2023/09/14 10:18:28;;;;;;;10.93;3.87;;;17.30;99.90;;;;;;4172752;28;20356;-81
2023/09/14 10:20:34;;;;;;;11.33;5.63;;;17.20;99.90;;;;;;4171718;28;20201;-81
2023/09/14 10:22:37;;;;;;;8.37;4.23;;;17.30;99.90;;;;;;4174910;28;20625;-81
2023/09/14 10:24:41;;;;;;;9.77;5.17;;;17.40;99.90;;;;;;4175453;28;20222;-81
2023/09/14 10:27:08;;;;;;;5.57;2.67;;;17.50;99.90;;;;;;4171419;28;20692;-81
2023/09/14 10:32:10;;;;;;;6.03;2.30;;;17.80;99.90;;;;;;4173482;28;20286;-81
2023/09/14 10:34:13;;;;;;;5.57;2.00;;;17.90;99.90;;;;;;4172393;28;20809;-80
2023/09/14 10:36:39;;;;;;;5.67;2.27;;;18.00;99.90;;;;;;4172554;28;20241;-81
2023/09/14 10:38:44;;;;;;;4.03;1.83;;;18.00;99.90;;;;;;4173839;28;20263;-81
2023/09/14 10:40:47;;;;;;;4.57;1.90;;;18.00;99.90;;;;;;4174569;28;20697;-81
2023/09/14 10:42:48;;;;;;;4.00;2.00;;;18.20;99.90;;;;;;4173728;28;20731;-81
2023/09/14 10:44:51;;;;;;;4.37;2.00;;;18.20;99.90;;;;;;4174020;28;20284;-81
2023/09/14 10:46:56;;;;;;;4.47;1.70;;;18.30;99.90;;;;;;4172417;28;20305;-81
2023/09/14 10:48:59;;;;;;;7.37;2.13;;;18.40;99.90;;;;;;4176266;28;20626;-81
2023/09/14 10:51:01;;;;;;;5.37;2.30;;;18.50;99.90;;;;;;4174537;28;20230;-80
2023/09/14 10:53:05;;;;;;;3.63;1.90;;;18.60;99.90;;;;;;4176227;28;20225;-82
2023/09/14 10:55:08;;;;;;;5.80;2.10;;;18.70;99.90;;;;;;4173451;28;20579;-81
2023/09/14 10:57:21;;;;;;;2.43;1.70;;;18.70;99.90;;;;;;4175914;28;20814;-80
2023/09/14 10:59:46;;;;;;;4.37;1.70;;;18.70;99.90;;;;;;4174483;28;20411;-82
2023/09/14 11:01:50;;;;;;;4.40;2.03;;;18.70;99.90;;;;;;4177905;28;20211;-82
2023/09/14 11:04:10;;;;;;;5.00;2.27;;;18.70;99.90;;;;;;4180562;28;20325;-81
2023/09/14 11:06:12;;;;;;;2.50;1.80;;;18.80;99.90;;;;;;4184458;28;20213;-82
2023/09/14 11:08:16;;;;;;;5.27;2.10;;;18.90;99.90;;;;;;4186614;28;20266;-82
2023/09/14 11:10:21;;;;;;;2.70;1.63;;;19.00;99.90;;;;;;4182906;28;20220;-83
2023/09/14 11:12:23;;;;;;;4.77;1.87;;;19.10;99.90;;;;;;4187208;28;20650;-84
2023/09/14 11:14:25;;;;;;;4.07;1.73;;;19.30;99.90;;;;;;4180738;28;20269;-82
2023/09/14 11:16:41;;;;;;;3.90;1.90;;;19.40;99.90;;;;;;4177717;28;20313;-81
2023/09/14 11:18:54;;;;;;;3.47;1.67;;;19.60;99.90;;;;;;4173396;28;20212;-82
2023/09/14 11:20:55;;;;;;;3.30;1.63;;;19.80;99.90;;;;;;4175888;28;20715;-82
2023/09/14 11:23:02;;;;;;;3.80;1.87;;;19.90;99.90;;;;;;4174082;28;20209;-82
2023/09/14 11:25:10;;;;;;;3.97;1.50;;;20.10;99.90;;;;;;4174129;28;20226;-82
2023/09/14 11:27:18;;;;;;;4.67;1.90;;;20.30;99.90;;;;;;4176894;28;20202;-82
2023/09/14 11:29:25;;;;;;;3.33;1.70;;;20.40;99.90;;;;;;4175026;28;20215;-82
2023/09/14 11:31:30;;;;;;;5.40;1.97;;;20.60;99.90;;;;;;4173909;28;20223;-82
2023/09/14 11:33:33;;;;;;;3.33;1.70;;;20.70;99.90;;;;;;4173794;28;20232;-83
2023/09/14 11:35:38;;;;;;;3.77;1.70;;;20.80;99.90;;;;;;4174464;28;20221;-82
2023/09/14 11:37:41;;;;;;;3.77;1.70;;;20.90;99.90;;;;;;4177494;28;20289;-82
2023/09/14 11:39:52;;;;;;;6.17;1.80;;;21.00;99.90;;;;;;4174519;28;20825;-83
2023/09/14 11:42:00;;;;;;;5.97;2.60;;;21.10;99.90;;;;;;4177624;28;20533;-82
2023/09/14 11:44:02;;;;;;;6.23;2.30;;;21.20;99.90;;;;;;4177066;28;20283;-83
2023/09/14 11:46:06;;;;;;;4.17;2.00;;;21.20;99.90;;;;;;4178517;28;20616;-81
2023/09/14 11:48:09;;;;;;;3.13;1.80;;;21.00;99.90;;;;;;4176283;28;20209;-82
2023/09/14 11:50:12;;;;;;;6.20;2.30;;;21.00;99.90;;;;;;4181138;28;20202;-83
2023/09/14 11:52:19;;;;;;;6.13;2.30;;;20.80;99.90;;;;;;4180449;28;20233;-82
2023/09/14 11:54:21;;;;;;;30.17;20.53;;;20.80;99.90;;;;;;4177925;28;20239;-82
2023/09/14 11:56:25;;;;;;;24.40;13.10;;;20.60;99.90;;;;;;4175785;28;20214;-82
2023/09/14 11:58:33;;;;;;;23.50;13.07;;;20.50;99.90;;;;;;4176865;28;20359;-83
2023/09/14 12:00:38;;;;;;;13.13;5.97;;;20.40;99.90;;;;;;4180472;28;20240;-82
2023/09/14 12:02:40;;;;;;;7.40;2.87;;;20.40;99.90;;;;;;4177631;28;20674;-81
2023/09/14 12:04:43;;;;;;;5.10;2.23;;;20.60;99.90;;;;;;4174647;28;20232;-79
2023/09/14 12:06:45;;;;;;;4.20;2.07;;;20.80;99.90;;;;;;4173182;28;20304;-80
2023/09/14 12:08:48;;;;;;;3.73;1.80;;;21.10;99.90;;;;;;4176793;28;20201;-79
2023/09/14 12:10:53;;;;;;;3.67;1.77;;;21.50;99.90;;;;;;4175752;28;20227;-80
2023/09/14 12:12:55;;;;;;;2.83;1.60;;;21.80;99.90;;;;;;4175348;28;20205;-79
2023/09/14 12:15:00;;;;;;;4.30;2.00;;;22.10;99.90;;;;;;4173242;28;20203;-79
2023/09/14 12:17:01;;;;;;;4.30;1.83;;;22.50;99.90;;;;;;4172442;28;20222;-78
2023/09/14 12:19:03;;;;;;;5.07;1.93;;;22.80;99.90;;;;;;4170510;28;20203;-80
2023/09/14 12:21:07;;;;;;;4.80;2.30;;;23.10;99.90;;;;;;4173104;28;20199;-79
2023/09/14 12:23:10;;;;;;;26.30;15.27;;;23.30;99.90;;;;;;4174068;28;20807;-79
2023/09/14 12:25:13;;;;;;;36.40;20.50;;;23.60;99.90;;;;;;4173748;28;20218;-78
2023/09/14 12:27:16;;;;;;;73.13;42.83;;;23.70;99.90;;;;;;4171981;28;20823;-77
2023/09/14 12:29:18;;;;;;;54.07;32.80;;;23.60;99.90;;;;;;4172719;28;20210;-79
2023/09/14 12:31:26;;;;;;;31.93;18.93;;;23.60;99.90;;;;;;4174057;28;20352;-80
2023/09/14 12:33:30;;;;;;;39.30;22.03;;;23.50;99.90;;;;;;4172448;28;20230;-78
2023/09/14 12:35:33;;;;;;;118.83;66.80;;;23.40;99.90;;;;;;4173485;28;20273;-79
2023/09/14 12:37:38;;;;;;;99.27;53.67;;;23.30;99.90;;;;;;4172287;28;20236;-79
2023/09/14 12:39:45;;;;;;;171.43;98.23;;;23.00;99.90;;;;;;4172283;28;20234;-79
2023/09/14 12:41:51;;;;;;;149.10;85.33;;;22.90;99.90;;;;;;4172732;28;20599;-77
2023/09/14 12:43:53;;;;;;;245.57;154.53;;;22.80;99.90;;;;;;4174863;28;20234;-78
2023/09/14 12:45:55;;;;;;;216.30;134.33;;;22.70;99.90;;;;;;4176903;28;20222;-79
2023/09/14 12:48:03;;;;;;;145.87;90.63;;;22.50;99.90;;;;;;4177685;28;20202;-78
2023/09/14 12:50:10;;;;;;;143.57;83.57;;;22.60;99.90;;;;;;4175064;28;20328;-78
2023/09/14 12:52:13;;;;;;;64.60;38.60;;;22.50;99.90;;;;;;4171599;28;20522;-79
2023/09/14 12:54:16;;;;;;;53.83;31.07;;;22.50;99.90;;;;;;4173196;28;20257;-79
2023/09/14 12:56:21;;;;;;;42.83;23.97;;;22.40;99.90;;;;;;4176884;28;20860;-79
2023/09/14 12:58:23;;;;;;;24.33;14.47;;;22.40;99.90;;;;;;4171525;28;20210;-79
2023/09/14 13:00:27;;;;;;;48.87;27.00;;;22.40;99.90;;;;;;4172808;28;20219;-75
2023/09/14 13:02:33;;;;;;;36.57;19.20;;;22.50;99.90;;;;;;4173624;28;20222;-77
2023/09/14 13:04:37;;;;;;;22.27;11.20;;;22.50;99.90;;;;;;4173086;28;20235;-78
2023/09/14 13:06:39;;;;;;;13.60;7.20;;;22.50;99.90;;;;;;4170410;28;20199;-78
2023/09/14 13:08:45;;;;;;;12.20;5.87;;;22.70;99.90;;;;;;4171935;28;20210;-78
2023/09/14 13:10:47;;;;;;;7.17;4.20;;;22.80;99.90;;;;;;4171147;28;20430;-77
2023/09/14 13:12:54;;;;;;;5.70;3.43;;;22.80;99.90;;;;;;4173291;28;20210;-80
2023/09/14 13:14:56;;;;;;;6.00;2.87;;;22.90;99.90;;;;;;4172937;28;20242;-78
2023/09/14 13:16:58;;;;;;;5.93;3.30;;;22.80;99.90;;;;;;4170408;28;20346;-78
2023/09/14 13:19:03;;;;;;;11.13;4.40;;;22.70;99.90;;;;;;4171309;28;20265;-78
2023/09/14 13:21:07;;;;;;;28.23;14.10;;;22.60;99.90;;;;;;4171295;28;20207;-78
2023/09/14 13:23:12;;;;;;;224.37;96.57;;;22.60;99.90;;;;;;4170573;28;20718;-78
2023/09/14 13:25:14;;;;;;;166.40;71.63;;;22.80;99.90;;;;;;4170203;28;20214;-79
2023/09/14 13:27:16;;;;;;;289.57;126.60;;;23.20;99.90;;;;;;4174534;28;20223;-79
2023/09/14 13:29:20;;;;;;;293.87;127.70;;;23.90;99.90;;;;;;4175916;28;20284;-79
2023/09/14 13:31:21;;;;;;;125.80;54.53;;;24.30;96.40;;;;;;4171408;28;20249;-79
2023/09/14 13:33:23;;;;;;;69.77;30.77;;;24.60;99.90;;;;;;4174624;28;20234;-80
2023/09/14 13:35:26;;;;;;;43.97;20.43;;;24.90;94.60;;;;;;4175291;28;20606;-79
2023/09/14 13:37:29;;;;;;;27.38;11.27;;;25.10;80.10;;;;;;4172244;28;20206;-78
2023/09/14 13:39:32;;;;;;;19.48;9.18;;;25.40;85.00;;;;;;4170856;28;20444;-78
2023/09/14 13:41:36;;;;;;;153.43;69.80;;;25.90;99.90;;;;;;4173507;28;20210;-79
2023/09/14 13:43:38;;;;;;;165.45;79.07;;;26.20;72.10;;;;;;4170851;28;20234;-79
2023/09/14 13:45:40;;;;;;;452.95;203.50;;;26.50;86.90;;;;;;4169640;28;20207;-79
2023/09/14 13:47:46;;;;;;;615.08;308.73;;;26.80;99.90;;;;;;4172455;28;20199;-80
2023/09/14 13:49:48;;;;;;;436.23;195.50;;;27.00;62.20;;;;;;4171235;28;20620;-77
2023/09/14 13:51:50;;;;;;;128.50;55.95;;;27.10;51.90;;;;;;4170786;28;20230;-81
2023/09/14 13:53:53;;;;;;;206.98;91.70;;;27.20;55.80;;;;;;4169599;28;20496;-79
2023/09/14 13:55:56;;;;;;;199.95;82.68;;;27.40;87.90;;;;;;4173130;28;20206;-78
2023/09/14 13:57:58;;;;;;;93.40;40.10;;;27.60;66.70;;;;;;4170990;28;20606;-79
2023/09/14 14:00:01;;;;;;;86.70;35.25;;;27.60;50.00;;;;;;4169851;28;20440;-79
2023/09/14 14:02:02;;;;;;;30.00;12.43;;;27.80;47.90;;;;;;4171396;28;20195;-78
2023/09/14 14:04:05;;;;;;;62.67;25.52;;;27.80;45.40;;;;;;4170018;28;20222;-78
2023/09/14 14:06:07;;;;;;;39.58;17.52;;;27.90;52.90;;;;;;4170113;28;20744;-79
2023/09/14 14:08:09;;;;;;;59.63;24.55;;;28.10;48.50;;;;;;4174123;28;20218;-79
2023/09/14 14:10:13;;;;;;;171.23;71.60;;;28.20;49.20;;;;;;4167665;28;20260;-79
2023/09/14 14:12:15;;;;;;;97.38;39.42;;;28.30;45.30;;;;;;4171722;28;20218;-79
2023/09/14 14:14:17;;;;;;;35.63;15.48;;;28.40;52.30;;;;;;4170118;28;20250;-80
2023/09/14 14:16:18;;;;;;;20.02;8.40;;;28.40;47.90;;;;;;4171832;28;20503;-81
2023/09/14 14:18:20;;;;;;;15.10;6.82;;;28.50;47.50;;;;;;4174353;28;20202;-79
2023/09/14 14:20:22;;;;;;;53.60;21.30;;;28.50;47.50;;;;;;4172282;28;21166;-82
2023/09/14 14:22:24;;;;;;;82.10;33.67;;;28.60;44.10;;;;;;4171538;28;20687;-80
2023/09/14 14:24:27;;;;;;;195.52;66.45;;;28.60;41.50;;;;;;4171333;28;20226;-80
2023/09/14 14:26:31;;;;;;;136.60;47.13;;;28.70;42.50;;;;;;4173189;28;20230;-79
2023/09/14 14:28:33;;;;;;;78.63;28.13;;;28.60;41.60;;;;;;4175282;28;20255;-80
2023/09/14 14:30:35;;;;;;;85.45;28.88;;;28.60;41.60;;;;;;4172738;28;20213;-80
2023/09/14 14:32:37;;;;;;;118.95;40.88;;;28.50;41.50;;;;;;4171314;28;20231;-79
2023/09/14 14:34:39;;;;;;;119.97;41.83;;;28.50;41.50;;;;;;4172070;28;20253;-83
2023/09/14 14:36:41;;;;;;;218.52;71.10;;;28.50;41.10;;;;;;4176751;28;20256;-81
2023/09/14 14:38:42;;;;;;;170.07;56.58;;;28.50;41.30;;;;;;4175193;28;20210;-82
2023/09/14 14:40:44;;;;;;;209.95;70.95;;;28.60;48.30;;;;;;4174534;28;20222;-81
2023/09/14 14:42:47;;;;;;;146.40;53.83;;;28.70;43.60;;;;;;4174406;28;20198;-81
2023/09/14 14:44:49;;;;;;;147.02;49.63;;;28.80;45.30;;;;;;4174132;28;20316;-79
2023/09/14 14:46:51;;;;;;;139.90;45.17;;;28.80;40.30;;;;;;4172667;28;20279;-82
2023/09/14 14:48:53;;;;;;;138.80;46.67;;;28.70;42.80;;;;;;4175802;28;20202;-82
2023/09/14 14:50:59;;;;;;;138.88;45.70;;;28.70;38.80;;;;;;4176136;28;20206;-82
2023/09/14 14:53:01;;;;;;;115.35;38.75;;;28.70;38.40;;;;;;4174784;28;20254;-82
2023/09/14 14:55:05;;;;;;;37.05;13.88;;;28.80;38.50;;;;;;4172042;28;20568;-80
2023/09/14 14:57:06;;;;;;;27.33;9.82;;;29.10;43.90;;;;;;4175421;28;20213;-79
2023/09/14 14:59:10;;;;;;;74.88;23.60;;;29.20;39.30;;;;;;4173858;28;20342;-82
2023/09/14 15:01:12;;;;;;;63.67;21.35;;;29.10;38.30;;;;;;4172147;28;20255;-80
2023/09/14 15:03:14;;;;;;;46.85;14.45;;;28.80;37.80;;;;;;4172744;28;20580;-83
2023/09/14 15:05:16;;;;;;;13.63;5.03;;;28.60;38.30;;;;;;4177828;28;20210;-79
2023/09/14 15:07:18;;;;;;;8.52;3.80;;;28.50;37.50;;;;;;4175361;28;20626;-81
2023/09/14 15:09:20;;;;;;;9.65;3.83;;;28.50;39.50;;;;;;4173193;28;20260;-79
2023/09/14 15:11:22;;;;;;;22.35;8.65;;;28.60;39.00;;;;;;4175199;28;20202;-79
2023/09/14 15:13:24;;;;;;;58.47;18.67;;;28.70;38.00;;;;;;4174466;28;20705;-80
2023/09/14 15:15:27;;;;;;;134.30;46.10;;;28.60;38.90;;;;;;4174262;28;20573;-79
2023/09/14 15:17:29;;;;;;;99.18;36.00;;;28.60;37.70;;;;;;4174734;28;20294;-78
2023/09/14 15:19:31;;;;;;;90.57;31.67;;;28.70;39.00;;;;;;4177783;28;20294;-79
2023/09/14 15:21:33;;;;;;;142.73;46.75;;;28.80;39.80;;;;;;4178847;28;20194;-79
2023/09/14 15:23:36;;;;;;;250.48;78.22;;;28.80;38.60;;;;;;4179697;28;20283;-80
2023/09/14 15:25:38;;;;;;;155.70;49.08;;;28.90;37.70;;;;;;4182993;28;20508;-79
2023/09/14 15:27:39;;;;;;;127.43;41.92;;;29.10;37.90;;;;;;4179176;28;20209;-76
2023/09/14 15:29:41;;;;;;;96.25;31.73;;;29.20;37.00;;;;;;4179268;28;20206;-78
2023/09/14 15:31:43;;;;;;;104.60;35.55;;;29.30;37.20;;;;;;4177975;28;20256;-79
2023/09/14 15:33:45;;;;;;;278.98;92.40;;;29.20;35.10;;;;;;4191204;28;20708;-78
2023/09/14 15:35:47;;;;;;;112.18;37.65;;;29.30;36.50;;;;;;4176759;28;20785;-79
2023/09/14 15:37:49;;;;;;;52.90;19.10;;;29.20;35.80;;;;;;4175862;28;20207;-79
2023/09/14 15:39:51;;;;;;;44.45;16.38;;;29.10;37.50;;;;;;4177507;28;20287;-79
2023/09/14 15:41:56;;;;;;;33.25;12.35;;;29.10;36.70;;;;;;4176964;28;20202;-79
2023/09/14 15:43:58;;;;;;;34.63;12.93;;;29.00;38.20;;;;;;4173304;28;20258;-80
2023/09/14 15:46:00;;;;;;;27.45;10.40;;;28.90;37.60;;;;;;4173565;28;20626;-80
2023/09/14 15:48:03;;;;;;;15.48;5.65;;;28.80;36.80;;;;;;4180066;28;20233;-79
2023/09/14 15:50:07;;;;;;;10.55;4.20;;;28.80;37.30;;;;;;4179142;28;20236;-80
2023/09/14 15:52:09;;;;;;;6.93;3.17;;;28.80;37.50;;;;;;4173264;28;20254;-78
2023/09/14 15:54:12;;;;;;;6.82;2.67;;;28.80;37.10;;;;;;4176562;28;20222;-77
2023/09/14 15:56:14;;;;;;;8.50;3.20;;;28.80;36.50;;;;;;4171823;28;20207;-77
2023/09/14 15:58:16;;;;;;;8.10;3.63;;;28.80;36.90;;;;;;4172985;28;21194;-77
2023/09/14 16:00:18;;;;;;;8.07;3.50;;;28.90;37.70;;;;;;4173815;28;20268;-77
2023/09/14 16:02:20;;;;;;;7.63;3.50;;;28.90;37.80;;;;;;4171849;28;20562;-77
2023/09/14 16:04:24;;;;;;;5.07;2.80;;;28.90;37.80;;;;;;4171324;28;20276;-78
2023/09/14 16:06:26;;;;;;;8.35;3.30;;;28.90;36.50;;;;;;4171761;28;20297;-77
2023/09/14 16:08:29;;;;;;;23.83;9.07;;;28.90;36.80;;;;;;4173296;28;20210;-77
2023/09/14 16:10:31;;;;;;;47.35;18.42;;;28.80;36.60;;;;;;4171371;28;20206;-77
2023/09/14 16:12:33;;;;;;;50.83;17.98;;;28.80;36.50;;;;;;4173573;28;20227;-77
2023/09/14 16:14:34;;;;;;;37.80;15.27;;;28.80;37.30;;;;;;4174648;28;20226;-77
2023/09/14 16:16:36;;;;;;;29.58;11.70;;;28.80;37.10;;;;;;4169629;28;20207;-77
2023/09/14 16:18:37;;;;;;;38.83;15.02;;;28.80;36.80;;;;;;4171880;28;20199;-77
2023/09/14 16:20:44;;;;;;;61.45;23.70;;;28.80;36.40;;;;;;4173763;28;20681;-77
2023/09/14 16:22:46;;;;;;;50.65;19.60;;;28.80;36.50;;;;;;4174682;28;20269;-77
2023/09/14 16:24:49;;;;;;;62.28;23.70;;;28.70;35.70;;;;;;4175113;28;20919;-78
2023/09/14 16:26:51;;;;;;;54.22;21.90;;;28.60;35.10;;;;;;4174060;28;20654;-77
2023/09/14 16:28:53;;;;;;;56.80;21.33;;;28.60;36.90;;;;;;4173749;28;20253;-77
2023/09/14 16:30:55;;;;;;;99.40;37.83;;;28.50;37.60;;;;;;4172495;28;20295;-77
2023/09/14 16:32:57;;;;;;;72.18;28.45;;;28.40;37.20;;;;;;4175791;28;20236;-77
2023/09/14 16:35:04;;;;;;;47.13;17.73;;;28.40;37.90;;;;;;4174721;28;20237;-77
2023/09/14 16:37:07;;;;;;;36.10;14.67;;;28.40;37.90;;;;;;4175788;28;20654;-77
2023/09/14 16:39:09;;;;;;;35.67;12.77;;;28.40;38.30;;;;;;4175257;28;20233;-78
2023/09/14 16:41:11;;;;;;;23.03;9.13;;;28.30;39.10;;;;;;4173452;28;20217;-77
2023/09/14 16:43:12;;;;;;;38.57;13.97;;;28.20;38.60;;;;;;4171603;28;20202;-77
2023/09/14 16:45:14;;;;;;;34.13;12.73;;;28.10;40.90;;;;;;4169936;28;20783;-77
2023/09/14 16:47:17;;;;;;;22.80;9.27;;;28.10;41.10;;;;;;4171756;28;20234;-77
2023/09/14 16:49:21;;;;;;;19.60;6.97;;;27.90;40.00;;;;;;4170129;28;20214;-77
2023/09/14 16:51:23;;;;;;;18.47;6.03;;;27.80;41.30;;;;;;4171799;28;20214;-77
2023/09/14 16:53:29;;;;;;;16.40;6.60;;;27.80;42.50;;;;;;4168008;28;20300;-77
2023/09/14 16:55:31;;;;;;;28.93;9.03;;;27.60;42.70;;;;;;4170919;28;20289;-77
2023/09/14 16:57:33;;;;;;;19.50;6.47;;;27.60;42.50;;;;;;4172967;28;20233;-77
2023/09/14 16:59:36;;;;;;;16.50;6.70;;;27.50;43.00;;;;;;4170377;28;20194;-78
2023/09/14 17:01:38;;;;;;;21.50;7.67;;;27.40;42.70;;;;;;4172915;28;20215;-77
2023/09/14 17:03:40;;;;;;;26.73;7.73;;;27.30;42.60;;;;;;4169692;28;20230;-77
2023/09/14 17:05:42;;;;;;;36.60;11.60;;;27.10;44.20;;;;;;4171766;28;20267;-78
2023/09/14 17:07:45;;;;;;;44.07;12.93;;;26.90;46.70;;;;;;4172712;28;20215;-78
2023/09/14 17:09:49;;;;;;;38.53;12.30;;;26.70;48.10;;;;;;4177373;28;20206;-77
2023/09/14 17:11:51;;;;;;;70.50;19.80;;;26.50;50.90;;;;;;4172946;28;20203;-77
2023/09/14 17:13:53;;;;;;;97.73;29.60;;;26.20;48.90;;;;;;4173571;28;20313;-77
2023/09/14 17:15:55;;;;;;;115.37;35.93;;;25.90;50.70;;;;;;4170755;28;20617;-78
2023/09/14 17:17:59;;;;;;;126.47;38.77;;;25.60;55.50;;;;;;4172502;28;20297;-78
2023/09/14 17:20:00;;;;;;;131.83;40.67;;;25.40;61.90;;;;;;4170014;28;20294;-78
2023/09/14 17:22:04;;;;;;;114.90;39.07;;;25.10;61.30;;;;;;4171015;28;20260;-78
2023/09/14 17:24:06;;;;;;;132.80;40.57;;;24.90;71.80;;;;;;4174134;28;20268;-77
2023/09/14 17:26:10;;;;;;;126.77;40.93;;;24.60;75.90;;;;;;4169545;28;20658;-77
2023/09/14 17:28:12;;;;;;;123.37;39.60;;;24.40;93.50;;;;;;4173261;28;20211;-77